Time;durP1;ratioP1;P1;durP2;ratioP2;P2;SDS_P1;SDS_P2;PMS_P1;PMS_P2;Temp;Humidity;BMP_temperature;BMP_pressure;BME280_temperature;BME280_humidity;BME280_pressure;Samples;Min_cycle;Max_cycle;Signal;HPM_P1;HPM_P2
2023/01/13 00:04:58;;;;;;;2.50;1.80;;;;;;;12.48;47.71;99343.59;10517342;28;20223;-62
2023/01/13 00:09:59;;;;;;;2.20;2.00;;;;;;;12.25;47.04;99341.31;10518344;28;20245;-60
2023/01/13 00:15:01;;;;;;;3.87;1.70;;;;;;;11.67;48.46;99325.75;10526158;28;20791;-62
2023/01/13 00:20:03;;;;;;;2.60;1.73;;;;;;;12.01;47.34;99310.56;10527264;28;20238;-62
2023/01/13 00:25:06;;;;;;;3.10;1.53;;;;;;;12.24;47.18;99322.75;10526827;28;20867;-62
2023/01/13 00:30:08;;;;;;;2.67;1.80;;;;;;;12.52;47.28;99326.06;10527112;28;20227;-61
2023/01/13 00:35:09;;;;;;;2.47;1.90;;;;;;;13.06;47.51;99326.75;10521866;28;20238;-62
2023/01/13 00:40:11;;;;;;;1.93;1.60;;;;;;;11.73;49.38;99283.94;10522249;28;20979;-61
2023/01/13 00:45:13;;;;;;;2.30;2.00;;;;;;;11.88;49.61;99251.56;10524766;28;20222;-61
2023/01/13 00:50:15;;;;;;;4.93;2.70;;;;;;;11.56;49.52;99224.53;10525970;28;20253;-62
2023/01/13 00:55:16;;;;;;;1.90;1.80;;;;;;;11.49;49.33;99245.94;10522700;28;20349;-62
2023/01/13 01:00:18;;;;;;;4.50;2.33;;;;;;;11.34;50.00;99258.66;10522888;28;20253;-62
2023/01/13 01:05:20;;;;;;;2.10;2.00;;;;;;;11.81;49.08;99222.06;10523225;28;20238;-62
2023/01/13 01:10:22;;;;;;;3.80;2.20;;;;;;;12.17;49.70;99227.00;10523428;28;20260;-62
2023/01/13 01:15:24;;;;;;;2.73;1.90;;;;;;;11.26;51.12;99246.28;10525023;28;20226;-62
2023/01/13 01:20:25;;;;;;;3.73;2.00;;;;;;;10.27;52.83;99258.97;10523678;28;20242;-63
2023/01/13 01:25:27;;;;;;;2.77;2.00;;;;;;;11.42;50.88;99215.63;10522810;28;20233;-62
2023/01/13 01:30:29;;;;;;;3.13;1.90;;;;;;;9.93;52.92;99241.03;10523176;28;20754;-62
2023/01/13 01:35:31;;;;;;;2.13;2.03;;;;;;;10.44;51.87;99240.75;10522589;28;20787;-61
2023/01/13 01:40:32;;;;;;;2.60;2.13;;;;;;;10.74;51.81;99255.75;10519041;28;20241;-60
2023/01/13 01:45:34;;;;;;;3.17;1.87;;;;;;;11.70;49.94;99201.25;10523101;28;20227;-62
2023/01/13 01:50:38;;;;;;;2.20;1.93;;;;;;;10.25;51.88;99234.28;10522629;28;20723;-62
2023/01/13 01:55:40;;;;;;;4.17;1.53;;;;;;;11.91;49.75;99210.94;10520381;28;20238;-62
2023/01/13 02:00:42;;;;;;;2.90;1.60;;;;;;;12.04;50.84;99186.78;10521244;28;20234;-62
2023/01/13 02:05:43;;;;;;;2.90;1.53;;;;;;;10.74;51.57;99221.78;10517809;28;20232;-62
2023/01/13 02:10:52;;;;;;;1.77;1.67;;;;;;;12.14;50.22;99189.88;10520806;28;20238;-63
2023/01/13 02:16:10;;;;;;;1.97;1.60;;;;;;;9.45;55.04;99177.50;10520873;28;20230;-62
2023/01/13 02:21:24;;;;;;;4.10;2.40;;;;;;;11.74;52.29;99141.69;10521931;28;20227;-61
2023/01/13 02:26:58;;;;;;;2.83;2.00;;;;;;;10.63;52.93;99160.78;10521766;28;20226;-62
2023/01/13 02:32:11;;;;;;;4.00;2.30;;;;;;;11.41;50.99;99118.34;10519842;28;20325;-61
2023/01/13 02:37:26;;;;;;;1.90;1.80;;;;;;;12.37;50.21;99140.28;10518281;28;20239;-62
2023/01/13 02:47:55;;;;;;;3.03;2.13;;;;;;;12.62;48.81;99158.38;10516847;28;20230;-62
2023/01/13 02:53:02;;;;;;;2.43;2.20;;;;;;;11.44;50.34;99176.06;10519856;28;20272;-62
2023/01/13 02:58:07;;;;;;;2.47;2.20;;;;;;;10.91;49.49;99147.34;10524051;28;20712;-62
2023/01/13 03:03:08;;;;;;;2.97;2.13;;;;;;;10.10;51.39;99172.88;10520171;28;20238;-62
2023/01/13 03:08:16;;;;;;;1.77;1.67;;;;;;;11.15;50.23;99169.22;10520338;28;20242;-61
2023/01/13 03:13:52;;;;;;;2.57;2.30;;;;;;;12.16;48.63;99106.50;10517195;28;20318;-62
2023/01/13 03:19:12;;;;;;;1.87;1.67;;;;;;;9.83;51.33;99131.78;10517779;28;20230;-62
2023/01/13 03:24:27;;;;;;;2.60;1.87;;;;;;;10.35;50.70;99134.16;10516989;28;20237;-61
2023/01/13 03:29:40;;;;;;;2.47;2.10;;;;;;;11.76;50.05;99128.03;10516634;28;20626;-61
2023/01/13 03:34:48;;;;;;;2.40;2.30;;;;;;;12.03;48.80;99077.91;10515672;28;20951;-61
2023/01/13 03:39:56;;;;;;;1.77;1.67;;;;;;;11.70;48.75;99068.06;10518154;28;20239;-61
2023/01/13 03:45:13;;;;;;;1.90;1.70;;;;;;;12.48;47.84;99120.84;10521481;28;20582;-62
2023/01/13 03:50:23;;;;;;;1.90;1.73;;;;;;;12.59;47.94;99094.38;10529142;28;20253;-62
2023/01/13 03:55:34;;;;;;;2.57;2.37;;;;;;;10.96;49.90;99150.22;10524671;28;20227;-62
2023/01/13 04:00:42;;;;;;;2.37;1.77;;;;;;;11.21;50.93;99134.41;10525869;28;20245;-61
2023/01/13 04:05:50;;;;;;;2.60;1.60;;;;;;;11.25;49.33;99129.47;10526723;28;20252;-62
2023/01/13 04:10:54;;;;;;;2.30;2.10;;;;;;;11.41;48.83;99077.38;10526453;28;20909;-63
2023/01/13 04:15:58;;;;;;;1.87;1.60;;;;;;;12.80;47.70;99095.94;10528660;28;20230;-63
2023/01/13 04:21:00;;;;;;;2.37;1.90;;;;;;;12.53;48.41;99072.75;10521501;28;20230;-62
2023/01/13 04:26:03;;;;;;;3.50;2.23;;;;;;;10.33;50.98;99135.16;10525650;28;20237;-61
2023/01/13 04:31:05;;;;;;;3.37;2.00;;;;;;;11.42;49.86;99087.88;10525104;28;20234;-61
2023/01/13 04:36:07;;;;;;;1.77;1.67;;;;;;;12.21;48.64;99087.94;10526036;28;20303;-67
2023/01/13 04:41:08;;;;;;;1.73;1.60;;;;;;;11.67;49.43;99087.25;10525641;28;20260;-62
2023/01/13 04:46:10;;;;;;;1.93;1.53;;;;;;;11.05;50.75;99110.69;10527873;28;20223;-62
2023/01/13 04:51:12;;;;;;;2.13;2.03;;;;;;;10.89;50.21;99091.31;10525770;28;20234;-68
2023/01/13 04:56:13;;;;;;;2.63;1.90;;;;;;;10.04;51.73;99066.75;10520214;28;20230;-62
2023/01/13 05:01:15;;;;;;;1.90;1.80;;;;;;;10.28;51.85;99097.50;10523485;28;20233;-63
2023/01/13 05:06:17;;;;;;;2.47;1.70;;;;;;;11.87;48.86;99014.00;10522254;28;20223;-63
2023/01/13 05:27:20;;;;;;;3.37;1.70;;;;;;;11.69;50.06;99030.75;10521918;28;20239;-63
2023/01/13 05:32:23;;;;;;;2.90;2.10;;;;;;;11.00;50.41;99087.25;10520532;28;20230;-63
2023/01/13 05:37:26;;;;;;;2.33;2.17;;;;;;;10.45;51.16;99087.28;10524929;28;20227;-63
2023/01/13 05:47:48;;;;;;;2.93;1.90;;;;;;;12.06;49.86;99014.97;10522532;28;20230;-63
2023/01/13 05:52:50;;;;;;;1.90;1.80;;;;;;;10.17;52.31;99086.53;10519632;28;20244;-64
2023/01/13 05:57:52;;;;;;;3.10;1.80;;;;;;;12.21;48.80;99020.88;10523381;28;20226;-63
2023/01/13 06:02:53;;;;;;;2.87;1.73;;;;;;;11.12;51.11;99086.63;10520876;28;20230;-64
2023/01/13 06:08:00;;;;;;;4.03;1.63;;;;;;;11.38;51.00;99054.47;10522922;28;20235;-63
2023/01/13 06:13:03;;;;;;;2.10;1.90;;;;;;;9.70;53.25;99071.06;10519178;28;20236;-63
2023/01/13 06:18:04;;;;;;;2.60;1.70;;;;;;;13.01;48.61;99044.56;10522585;28;20753;-63
2023/01/13 06:23:08;;;;;;;2.47;1.80;;;;;;;11.48;51.41;99058.59;10514695;28;20311;-63
2023/01/13 06:28:10;;;;;;;2.47;2.27;;;;;;;11.42;51.22;99076.31;10519483;28;20239;-63
2023/01/13 06:33:23;;;;;;;2.37;2.17;;;;;;;12.16;49.53;99052.88;10518423;28;20706;-63
2023/01/13 06:38:27;;;;;;;2.03;1.93;;;;;;;12.25;49.78;99046.25;10522086;28;20227;-63
2023/01/13 06:43:29;;;;;;;2.30;2.10;;;;;;;10.39;51.79;99084.56;10520097;28;20606;-64
2023/01/13 06:48:33;;;;;;;1.90;1.80;;;;;;;11.36;50.71;99075.28;10519151;28;20249;-63
2023/01/13 06:53:35;;;;;;;1.97;1.67;;;;;;;11.43;50.82;99086.81;10516138;28;20230;-63
2023/01/13 06:58:37;;;;;;;2.90;1.87;;;;;;;10.58;52.42;99093.69;10517931;28;20234;-63
2023/01/13 07:03:39;;;;;;;1.57;1.40;;;;;;;11.35;51.00;99059.44;10516680;28;20235;-63
2023/01/13 07:08:41;;;;;;;2.27;2.10;;;;;;;12.85;49.07;99061.19;10520922;28;20249;-63
2023/01/13 07:19:03;;;;;;;1.80;1.70;;;;;;;12.48;50.93;99104.75;10521983;28;20765;-63
2023/01/13 07:24:05;;;;;;;2.60;1.87;;;;;;;13.32;49.85;99155.75;10527845;28;21643;-64
2023/01/13 07:29:06;;;;;;;2.97;2.67;;;;;;;12.98;49.86;99162.34;10527968;28;20238;-64
2023/01/13 07:34:08;;;;;;;6.70;2.73;;;;;;;11.16;54.26;99193.13;10526237;28;20219;-63
2023/01/13 07:39:10;;;;;;;2.90;2.47;;;;;;;11.16;53.08;99200.34;10526455;28;20245;-63
2023/01/13 07:44:11;;;;;;;2.97;2.30;;;;;;;11.07;53.83;99178.28;10524770;28;20234;-62
2023/01/13 07:49:13;;;;;;;2.77;2.30;;;;;;;9.45;55.54;99185.53;10528991;28;20238;-63
2023/01/13 07:54:15;;;;;;;2.83;2.10;;;;;;;11.40;52.66;99140.81;10527360;28;20726;-63
2023/01/13 07:59:17;;;;;;;3.97;2.50;;;;;;;11.67;51.57;99146.19;10526853;28;21001;-62
2023/01/13 08:04:19;;;;;;;2.13;1.93;;;;;;;11.21;51.58;99165.75;10523797;28;20634;-62
2023/01/13 08:09:20;;;;;;;3.67;2.50;;;;;;;11.63;51.60;99153.03;10521863;28;20226;-62
2023/01/13 08:14:22;;;;;;;3.57;3.10;;;;;;;11.25;52.40;99215.19;10523795;28;20233;-62
2023/01/13 08:19:24;;;;;;;5.53;3.93;;;;;;;11.42;51.56;99207.56;10523854;28;20226;-62
2023/01/13 08:24:25;;;;;;;3.30;3.00;;;;;;;11.94;50.49;99186.41;10544850;28;20226;-61
2023/01/13 08:29:27;;;;;;;3.23;2.20;;;;;;;12.45;50.32;99199.09;10545816;28;20234;-62
2023/01/13 08:34:29;;;;;;;4.67;2.70;;;;;;;12.51;49.98;99210.88;10541953;28;20752;-62
2023/01/13 08:39:30;;;;;;;2.97;2.67;;;;;;;12.04;50.08;99227.00;10540675;28;20235;-62
2023/01/13 08:44:32;;;;;;;2.70;2.20;;;;;;;11.99;49.74;99249.06;10530913;28;20313;-62
2023/01/13 08:49:33;;;;;;;3.13;2.43;;;;;;;12.32;49.33;99234.00;10524817;28;20258;-62
2023/01/13 08:54:38;;;;;;;5.50;3.10;;;;;;;13.96;47.50;99311.63;10524519;28;20234;-62
2023/01/13 08:59:40;;;;;;;4.60;2.27;;;;;;;12.59;49.98;99260.78;10521634;28;20241;-61
2023/01/13 09:04:41;;;;;;;2.37;2.17;;;;;;;12.91;49.68;99281.34;10524671;28;20234;-62
2023/01/13 09:09:43;;;;;;;2.80;2.07;;;;;;;12.88;49.07;99286.31;10519662;28;20233;-63
2023/01/13 09:14:45;;;;;;;3.00;2.20;;;;;;;12.10;51.25;99285.19;10524758;28;20223;-63
2023/01/13 09:19:48;;;;;;;2.63;2.43;;;;;;;10.19;54.02;99327.81;10526171;28;20241;-63
2023/01/13 09:24:49;;;;;;;4.23;2.20;;;;;;;12.33;50.68;99300.88;10521897;28;20579;-63
2023/01/13 09:29:51;;;;;;;5.73;4.00;;;;;;;11.38;51.26;99311.63;10522159;28;20257;-61
2023/01/13 09:34:59;;;;;;;4.27;2.20;;;;;;;12.71;49.03;99299.38;10512907;28;20238;-62
2023/01/13 09:40:03;;;;;;;3.67;2.30;;;;;;;12.97;48.48;99311.91;10520320;28;20234;-61
2023/01/13 09:45:16;;;;;;;5.63;2.10;;;;;;;13.60;47.94;99348.88;10522168;28;20226;-63
2023/01/13 09:50:43;;;;;;;4.50;2.93;;;;;;;13.22;48.44;99327.31;10523954;28;20759;-62
2023/01/13 09:55:45;;;;;;;8.77;3.03;;;;;;;12.25;49.65;99345.84;10519589;28;20219;-61
2023/01/13 10:01:02;;;;;;;4.17;2.80;;;;;;;11.60;51.82;99395.38;10518389;28;20230;-63
2023/01/13 10:06:29;;;;;;;5.90;2.90;;;;;;;12.89;49.23;99334.44;10515958;28;20254;-63
2023/01/13 10:17:14;;;;;;;5.50;3.33;;;;;;;11.28;51.06;99383.50;10517882;28;20857;-62
2023/01/13 10:22:37;;;;;;;5.57;2.80;;;;;;;12.87;48.22;99327.63;10562577;28;20237;-62
2023/01/13 10:27:39;;;;;;;4.00;2.80;;;;;;;13.42;47.13;99378.31;10562890;28;20717;-62
2023/01/13 10:32:45;;;;;;;5.00;3.10;;;;;;;13.23;47.81;99353.97;10555338;28;20238;-63
2023/01/13 10:37:56;;;;;;;6.10;3.03;;;;;;;13.31;47.20;99360.97;10564190;28;20237;-62
2023/01/13 10:43:07;;;;;;;5.07;3.23;;;;;;;12.82;48.59;99362.34;10563652;28;20222;-63
2023/01/13 10:48:13;;;;;;;3.63;2.37;;;;;;;12.67;47.42;99352.69;10563142;28;20226;-62
2023/01/13 10:53:24;;;;;;;5.17;2.57;;;;;;;14.06;46.64;99392.69;10561410;28;20241;-62
2023/01/13 10:58:27;;;;;;;4.77;2.40;;;;;;;12.22;48.37;99376.59;10561517;28;20236;-62
2023/01/13 11:06:29;;;;;;;5.30;2.60;;;;;;;8.70;57.78;99416.16;10361369;28;20816;-62
2023/01/13 11:11:44;;;;;;;6.57;3.40;;;;;;;9.15;56.83;99452.59;10385631;28;20240;-61
2023/01/13 11:16:51;;;;;;;5.50;2.63;;;;;;;8.41;56.73;99393.72;10393069;28;22020;-61
2023/01/13 11:22:06;;;;;;;5.50;3.03;;;;;;;9.27;55.95;99433.44;10384724;28;20756;-60
2023/01/13 11:27:13;;;;;;;5.53;2.10;;;;;;;8.25;55.91;99392.00;10396323;28;20610;-61
2023/01/13 11:32:20;;;;;;;8.07;3.03;;;;;;;9.73;54.30;99396.63;10390665;28;20221;-61
2023/01/13 11:37:27;;;;;;;9.00;3.00;;;;;;;10.38;53.93;99387.81;10394933;28;20709;-61
2023/01/13 11:42:54;;;;;;;4.60;2.37;;;;;;;7.78;56.86;99366.34;10395247;28;20511;-61
2023/01/13 11:47:59;;;;;;;6.20;2.97;;;;;;;7.06;56.09;99303.50;10388674;28;20259;-60
2023/01/13 11:53:04;;;;;;;7.33;3.17;;;;;;;8.48;53.51;99419.47;10381395;28;20282;-61
2023/01/13 11:58:05;;;;;;;7.63;3.10;;;;;;;8.03;54.47;99409.66;10397889;28;20233;-61
2023/01/13 12:03:29;;;;;;;6.93;2.50;;;;;;;7.71;54.44;99408.81;10392541;28;20229;-61
2023/01/13 12:08:56;;;;;;;11.00;4.07;;;;;;;8.11;54.24;99434.41;10390945;28;20240;-61
2023/01/13 12:14:19;;;;;;;8.00;2.80;;;;;;;9.06;53.82;99421.63;10378031;28;20315;-60
2023/01/13 12:19:26;;;;;;;7.77;3.23;;;;;;;9.99;52.43;99399.78;10361309;23;20666;-36
2023/01/13 12:24:34;;;;;;;6.23;3.30;;;;;;;7.46;54.59;99418.75;10265053;28;20333;-37
2023/01/13 12:29:37;;;;;;;6.97;2.57;;;;;;;8.10;55.81;99472.75;10253352;28;20235;-37
2023/01/13 12:34:58;;;;;;;5.53;3.10;;;;;;;8.28;56.30;99483.13;10234753;28;20718;-36
2023/01/13 12:40:24;;;;;;;8.07;3.00;;;;;;;8.79;55.70;99481.75;10250638;28;20289;-37
2023/01/13 12:45:28;;;;;;;5.37;2.73;;;;;;;8.10;55.56;99480.75;10215149;28;20228;-37
2023/01/13 12:50:30;;;;;;;3.40;2.50;;;;;;;7.52;56.19;99456.16;10211030;28;20234;-36
2023/01/13 12:55:34;;;;;;;6.73;2.50;;;;;;;7.99;55.42;99473.16;10197665;29;20727;-36
2023/01/13 13:00:55;;;;;;;7.57;3.20;;;;;;;7.73;55.67;99450.28;10205454;28;20334;-36
2023/01/13 13:06:02;;;;;;;4.93;3.07;;;;;;;8.56;54.47;99436.44;10228347;28;20237;-37
2023/01/13 13:13:16;;;;;;;5.77;3.10;;;;;;;8.15;54.42;99488.22;10250741;28;20239;-37
2023/01/13 13:16:51;;;;;;;10.23;2.80;;;;;;;9.71;52.10;99420.03;10238431;28;20243;-37
2023/01/13 13:22:11;;;;;;;6.50;3.00;;;;;;;9.07;52.31;99500.72;10245258;28;20243;-37
2023/01/13 13:27:16;;;;;;;8.53;3.40;;;;;;;9.94;51.01;99424.44;10235866;28;20236;-37
2023/01/13 13:32:21;;;;;;;8.23;2.53;;;;;;;9.75;50.65;99500.63;10246570;28;20224;-37
2023/01/13 13:46:45;;;;;;;8.47;5.00;;;;;;;9.72;49.94;99464.44;10235348;28;20240;-37
2023/01/13 13:48:25;;;;;;;6.27;2.83;;;;;;;10.85;48.61;99491.59;10241688;28;20243;-37
2023/01/13 13:53:33;;;;;;;15.40;9.93;;;;;;;10.35;50.09;99538.00;10240077;28;20738;-37
2023/01/13 13:58:36;;;;;;;4.63;3.53;;;;;;;10.15;50.47;99558.13;10247706;28;20234;-37
2023/01/13 14:03:38;;;;;;;10.30;3.80;;;;;;;9.81;50.89;99572.06;10227734;28;20330;-37
2023/01/13 14:08:49;;;;;;;9.13;3.77;;;;;;;9.14;52.17;99619.09;10202368;28;20623;-37
2023/01/13 14:14:05;;;;;;;6.93;3.50;;;;;;;10.02;50.59;99567.84;10201284;28;20624;-37
2023/01/13 14:19:25;;;;;;;10.03;3.40;;;;;;;10.43;49.82;99556.63;10199263;29;20751;-37
2023/01/13 14:24:27;;;;;;;10.93;3.33;;;;;;;9.95;50.48;99562.41;10218990;28;20609;-37
2023/01/13 14:29:29;;;;;;;9.07;4.23;;;;;;;9.80;50.28;99570.38;10246214;28;20239;-37
2023/01/13 14:34:32;;;;;;;9.13;4.67;;;;;;;9.70;50.36;99570.69;10242158;28;20249;-37
2023/01/13 14:39:39;;;;;;;6.50;2.80;;;;;;;9.48;50.53;99601.78;10242966;28;20638;-37
2023/01/13 14:44:46;;;;;;;5.87;3.93;;;;;;;9.90;49.90;99581.66;10233731;28;20270;-37
2023/01/13 14:50:20;;;;;;;7.67;3.50;;;;;;;9.91;49.45;99574.50;10234042;28;20954;-36
2023/01/13 14:55:26;;;;;;;8.83;4.40;;;;;;;9.57;49.72;99626.59;10236757;28;20262;-37
2023/01/13 15:00:27;;;;;;;8.03;3.07;;;;;;;9.44;49.65;99626.38;10242614;28;20246;-37
2023/01/13 15:05:34;;;;;;;7.00;2.87;;;;;;;8.81;50.88;99669.19;10242361;28;20238;-36
2023/01/13 15:10:54;;;;;;;2.60;2.37;;;;;;;6.88;52.26;99479.28;10248468;28;20249;-37
2023/01/13 15:15:58;;;;;;;4.53;2.90;;;;;;;7.18;52.32;99560.25;10238006;28;20238;-36
2023/01/13 15:21:00;;;;;;;8.67;2.77;;;;;;;9.38;49.35;99622.56;10233169;28;20281;-36
2023/01/13 15:26:02;;;;;;;6.47;3.57;;;;;;;8.33;51.44;99685.22;10232257;28;20243;-37
2023/01/13 15:31:04;;;;;;;5.23;3.00;;;;;;;9.44;50.76;99669.13;10232080;28;20739;-37
2023/01/13 15:36:19;;;;;;;5.10;2.70;;;;;;;9.54;49.74;99657.16;10241011;28;20787;-37
2023/01/13 15:46:43;;;;;;;12.77;6.80;;;;;;;8.77;50.14;99692.69;10238116;28;20891;-37
2023/01/13 15:51:44;;;;;;;7.00;2.70;;;;;;;8.05;52.77;99676.81;10242465;28;20361;-37
2023/01/13 15:56:47;;;;;;;9.77;2.70;;;;;;;8.15;52.62;99693.47;10249582;28;20266;-37
2023/01/13 16:01:49;;;;;;;12.80;9.47;;;;;;;8.65;52.48;99726.94;10245922;28;20238;-36
2023/01/13 16:06:50;;;;;;;6.83;3.17;;;;;;;7.64;54.02;99659.03;10242120;28;20335;-37
2023/01/13 16:11:52;;;;;;;5.13;3.10;;;;;;;9.08;52.31;99675.03;10212907;28;20742;-37
2023/01/13 16:16:54;;;;;;;5.97;2.70;;;;;;;7.46;55.14;99675.19;10237614;28;20717;-37
2023/01/13 16:21:58;;;;;;;5.90;2.87;;;;;;;8.33;54.22;99733.22;10240563;28;20246;-36
2023/01/13 16:27:00;;;;;;;5.60;3.03;;;;;;;8.64;52.80;99732.44;10241823;28;20815;-36
2023/01/13 16:32:02;;;;;;;6.23;2.90;;;;;;;8.22;53.53;99771.75;10241851;28;20543;-36
2023/01/13 16:37:05;;;;;;;7.33;2.70;;;;;;;8.58;52.66;99747.31;10243417;28;20275;-37
2023/01/13 16:42:07;;;;;;;5.87;3.10;;;;;;;8.95;51.79;99739.69;10248200;28;20235;-37
2023/01/13 16:47:13;;;;;;;14.23;2.93;;;;;;;8.28;54.17;99747.03;10248048;28;20568;-36
2023/01/13 16:52:15;;;;;;;4.77;2.90;;;;;;;8.46;53.01;99762.84;10253228;28;20256;-36
2023/01/13 16:57:16;;;;;;;7.97;2.53;;;;;;;9.15;52.05;99724.06;10254660;28;20235;-37
2023/01/13 17:02:18;;;;;;;4.07;2.87;;;;;;;8.49;51.85;99809.69;10243736;28;20326;-37
2023/01/13 17:07:21;;;;;;;7.20;3.50;;;;;;;8.15;51.38;99799.22;10248913;28;20590;-37
2023/01/13 17:12:23;;;;;;;6.70;2.80;;;;;;;7.87;51.98;99807.56;10245546;28;20720;-37
2023/01/13 17:17:26;;;;;;;7.47;3.10;;;;;;;8.73;50.27;99778.63;10246658;28;20232;-37
2023/01/13 17:22:29;;;;;;;4.93;2.57;;;;;;;9.33;50.28;99788.69;10252382;28;20241;-36
2023/01/13 17:27:31;;;;;;;6.53;2.90;;;;;;;10.00;48.78;99781.88;10251299;28;20666;-37
2023/01/13 17:32:33;;;;;;;7.13;3.10;;;;;;;9.06;48.83;99869.25;10243883;28;20246;-37
2023/01/13 17:37:34;;;;;;;4.87;3.90;;;;;;;9.27;48.75;99841.97;10241988;28;20734;-37
2023/01/13 17:42:36;;;;;;;4.10;2.40;;;;;;;8.48;49.88;99902.19;10237269;28;20249;-37
2023/01/13 17:47:38;;;;;;;4.40;3.00;;;;;;;8.54;50.19;99923.84;10247537;28;20425;-37
2023/01/13 17:52:39;;;;;;;7.27;2.70;;;;;;;8.18;50.05;99948.19;10233154;28;20338;-37
2023/01/13 17:57:41;;;;;;;3.83;2.30;;;;;;;9.98;47.71;99903.38;10248034;28;20239;-37
2023/01/13 18:02:43;;;;;;;5.80;2.90;;;;;;;9.79;47.75;99929.53;10242679;28;20239;-37
2023/01/13 18:07:44;;;;;;;4.10;2.50;;;;;;;9.38;48.17;99959.06;10244286;28;20439;-37
2023/01/13 18:12:46;;;;;;;5.53;2.90;;;;;;;9.53;48.60;99962.72;10242951;28;20748;-36
2023/01/13 18:17:48;;;;;;;5.87;2.93;;;;;;;7.89;51.19;99962.78;10250853;28;20236;-37
2023/01/13 18:28:10;;;;;;;7.20;2.90;;;;;;;8.47;49.04;99993.03;10252831;28;20731;-37
2023/01/13 18:33:11;;;;;;;4.20;2.47;;;;;;;8.43;50.48;99992.53;10250866;28;20733;-37
2023/01/13 18:38:23;;;;;;;6.10;4.17;;;;;;;8.46;49.92;100039.38;10235555;28;20242;-36
2023/01/13 18:43:24;;;;;;;4.43;2.97;;;;;;;8.75;50.00;99992.72;10240145;28;20236;-36
2023/01/13 18:48:26;;;;;;;8.00;2.80;;;;;;;8.67;49.55;99990.88;10253434;28;20247;-36
2023/01/13 18:53:28;;;;;;;2.03;1.80;;;;;;;6.84;52.53;99837.06;10256850;28;20225;-36
2023/01/13 18:58:31;;;;;;;3.83;2.60;;;;;;;8.34;50.22;99993.53;10251533;28;20237;-36
2023/01/13 19:03:33;;;;;;;3.93;2.50;;;;;;;8.70;50.33;100000.38;10246045;28;20611;-36
2023/01/13 19:08:35;;;;;;;3.37;2.40;;;;;;;7.35;52.14;99945.22;10250569;28;20235;-36
2023/01/13 19:13:37;;;;;;;3.90;3.13;;;;;;;7.54;51.66;99991.25;10245368;28;20243;-36
2023/01/13 19:18:39;;;;;;;4.20;2.77;;;;;;;7.19;53.43;99955.81;10249807;28;20800;-36
2023/01/13 19:23:40;;;;;;;3.43;2.67;;;;;;;7.29;53.74;99964.50;10249122;28;20239;-36
2023/01/13 19:28:42;;;;;;;6.30;2.80;;;;;;;7.73;53.58;99995.50;10252389;28;20239;-36
2023/01/13 19:33:44;;;;;;;3.57;2.60;;;;;;;8.12;52.17;100005.66;10241165;28;20677;-36
2023/01/13 19:38:46;;;;;;;5.50;3.20;;;;;;;8.26;51.92;100031.66;10244659;28;20575;-36
2023/01/13 19:49:09;;;;;;;4.33;3.00;;;;;;;7.54;52.32;100012.53;10240677;28;20234;-36
2023/01/13 19:54:10;;;;;;;4.50;2.83;;;;;;;9.09;50.38;100000.53;10257213;28;20246;-36
2023/01/13 19:59:12;;;;;;;4.90;2.70;;;;;;;8.61;50.53;100029.72;10249714;28;20332;-36
2023/01/13 20:04:17;;;;;;;8.50;2.70;;;;;;;8.52;50.68;100081.38;10245338;28;20235;-36
2023/01/13 20:09:18;;;;;;;4.33;2.80;;;;;;;9.44;49.27;100005.66;10258717;28;20336;-36
2023/01/13 20:14:22;;;;;;;7.20;3.10;;;;;;;8.43;50.55;100072.53;10250257;28;20234;-36
2023/01/13 20:19:23;;;;;;;8.00;3.37;;;;;;;9.50;49.30;100023.66;10245031;28;20835;-36
2023/01/13 20:24:25;;;;;;;6.73;3.00;;;;;;;8.81;49.99;100046.25;10247851;28;20246;-36
2023/01/13 20:29:27;;;;;;;9.77;3.20;;;;;;;9.06;49.85;100069.44;10248509;28;20725;-36
2023/01/13 20:34:29;;;;;;;6.03;3.10;;;;;;;8.54;50.20;100089.22;10238863;28;20235;-36
2023/01/13 20:39:31;;;;;;;8.90;3.27;;;;;;;8.65;50.41;100088.91;10254150;28;20236;-36
2023/01/13 20:44:33;;;;;;;8.67;3.70;;;;;;;8.93;50.17;100064.63;10247153;28;20250;-36
2023/01/13 20:49:35;;;;;;;14.80;4.30;;;;;;;9.02;50.57;100082.31;10242079;28;20251;-36
2023/01/13 20:54:39;;;;;;;10.13;4.00;;;;;;;8.83;50.86;100097.63;10252755;28;20291;-36
2023/01/13 20:59:41;;;;;;;11.47;4.00;;;;;;;9.40;49.49;100040.72;10246834;28;20235;-36
2023/01/13 21:04:43;;;;;;;9.63;3.73;;;;;;;8.82;49.96;100103.09;10248313;28;20748;-36
2023/01/13 21:09:44;;;;;;;12.70;3.70;;;;;;;8.67;50.37;100111.78;10238745;28;20232;-36
2023/01/13 21:20:11;;;;;;;6.83;3.07;;;;;;;9.21;49.97;100114.03;10236906;28;20837;-36
2023/01/13 21:25:14;;;;;;;11.07;3.53;;;;;;;8.59;50.63;100122.44;10233844;28;20254;-36
2023/01/13 21:30:16;;;;;;;7.80;3.03;;;;;;;8.78;50.87;100141.81;10234415;28;20241;-36
2023/01/13 21:35:18;;;;;;;7.37;3.70;;;;;;;9.40;49.52;100094.13;10235114;28;20232;-36
2023/01/13 21:40:20;;;;;;;14.03;4.03;;;;;;;9.98;48.53;100104.72;10239119;28;20237;-36
2023/01/13 21:50:43;;;;;;;9.57;3.43;;;;;;;9.35;49.55;100135.72;10234633;28;20244;-36
2023/01/13 21:55:51;;;;;;;7.40;3.10;;;;;;;9.46;48.79;100123.84;10234300;28;20598;-36
2023/01/13 22:00:52;;;;;;;12.60;3.97;;;;;;;9.10;49.05;100148.22;10233304;28;20242;-36
2023/01/13 22:05:55;;;;;;;10.90;3.47;;;;;;;9.25;49.18;100183.94;10236658;28;20328;-36
2023/01/13 22:10:57;;;;;;;12.53;3.53;;;;;;;9.32;49.30;100170.75;10237585;28;20235;-36
2023/01/13 22:16:03;;;;;;;9.23;3.60;;;;;;;9.57;48.56;100161.72;10235887;28;20238;-36
2023/01/13 22:21:05;;;;;;;12.13;3.80;;;;;;;9.67;47.65;100137.50;10235292;28;20239;-36
2023/01/13 22:26:07;;;;;;;9.23;3.30;;;;;;;9.51;48.59;100182.94;10233756;28;20246;-36
2023/01/13 22:31:11;;;;;;;5.90;3.10;;;;;;;10.22;47.08;100137.72;10237343;28;20243;-36
2023/01/13 22:36:14;;;;;;;16.03;4.17;;;;;;;9.12;49.02;100213.78;10237782;28;20244;-36
2023/01/13 22:41:16;;;;;;;11.33;4.20;;;;;;;9.17;48.68;100207.97;10237615;28;20669;-36
2023/01/13 22:46:17;;;;;;;12.83;3.27;;;;;;;8.84;48.85;100219.38;10235371;28;20234;-36
2023/01/13 22:51:21;;;;;;;12.43;3.33;;;;;;;8.95;49.58;100225.44;10242233;28;20239;-36
2023/01/13 22:56:25;;;;;;;13.30;3.27;;;;;;;9.65;47.96;100154.69;10242292;28;20318;-36
2023/01/13 23:01:28;;;;;;;12.30;3.77;;;;;;;9.39;47.95;100185.94;10233531;28;20712;-36
2023/01/13 23:06:32;;;;;;;11.97;3.67;;;;;;;9.52;48.02;100206.81;10243449;28;20262;-36
2023/01/13 23:11:35;;;;;;;10.73;3.47;;;;;;;9.39;47.63;100169.09;10239261;28;20239;-36
2023/01/13 23:16:38;;;;;;;9.40;3.27;;;;;;;9.72;47.83;100193.09;10208077;28;20255;-36
2023/01/13 23:21:40;;;;;;;6.37;3.87;;;;;;;8.68;49.05;100216.66;10203546;28;20243;-36
2023/01/13 23:26:41;;;;;;;8.53;3.30;;;;;;;9.32;47.70;100218.84;10246032;28;20239;-36
2023/01/13 23:31:43;;;;;;;9.50;3.80;;;;;;;9.46;47.86;100225.34;10239889;28;20246;-36
2023/01/13 23:36:45;;;;;;;8.37;3.53;;;;;;;9.80;47.42;100200.28;10255825;28;20524;-36
2023/01/13 23:41:46;;;;;;;10.27;3.53;;;;;;;9.40;47.23;100197.47;10235886;28;20262;-36
2023/01/13 23:46:48;;;;;;;8.07;3.03;;;;;;;8.88;47.80;100217.25;10245672;28;20240;-36
2023/01/13 23:51:50;;;;;;;9.53;3.37;;;;;;;9.60;47.15;100213.97;10239008;28;20241;-36
2023/01/13 23:56:52;;;;;;;7.47;3.27;;;;;;;9.52;46.99;100206.81;10240649;28;20246;-36
